Welcome to our Virtual Airline
Sign-in:

Flight MFC5191

  • Submitted By: Danny Rice
  • Departure Airport: Ambler (PAFM)
  • Arrival Airport: Wien Meml (PAOT)
  • Aircraft: BELL 407 (N020MM)
  • Flight Time: 02.09.40
  • Date Submitted: 2019/06/16
  • Route: STOP-OVER AT 1. BAKER MEML (PAIK), 2. CURTIS MEML (D76)
  • Status: Accepted
Flight Details
Gross Revenue:
(5 load / $ 142.00 per unit
$ 710.00
Fuel Cost:
(131.995 fuel used @ 5.1 / unit)
$ 673.17

Additional Log Information:

View Log

FS[06:51] ----- Flight Opened -----
FS[06:51] Cigar Box - 1.1.4.0
FS[06:51] FS: Prepar3D V4
FS[06:51] FSUIPC: v5.151
FS[06:51] Flight Number: MFC5191
FS[06:51] FS Aircraft: Bell 407 N020MM
FS[06:51] FS Model: B407
FS[06:51] FS Type: Bell
FS[06:51] Departure: PAFM
FS[06:51] Arrival: PAOT
FS[06:51] Flight Level: 4500
FS[06:51] Flight Type: H
FS[06:51] Passengers: 5
FS[06:51] FOB: 703 lbs
FS[06:51] Gate: 2 - PAFM
FS[06:51] NOTE: Parking Brake Ignored
FS[06:51] Crash Detection: Disabled
FS[06:51] Engines: 1 Helo
FS[06:51] NOTE: Boarding has started
FS[06:51] Engine 1: Started
FS[06:51] Light Data: Beacon ON
FS[06:51] Light Data: Landing lights ON
FS[06:51] Main Door Closed
FS[06:51] COM1: 128.30
FS[06:51] COM2: 127.80
FS[06:51] Transponder: 1200
FS[06:51] NAV1: 117.20
FS[06:51] NAV2: 110.60
FS[06:51] ADF1: 284.0
FS[06:51] ADF2: 240.0
FS[06:51] Navigation Mode: GPS
FS[06:51] Navigation Mode: GPS
FS[07:04] NOTE: Taxi started
FS[07:04] NOTE: ----- TAKE OFF -----
FS[07:04] GS: 31 knots
FS[07:04] TAS: 30 knots
FS[07:04] IAS: 30 knots
FS[07:04] VS: 381 fpm
FS[07:04] FOB: 675 lbs
FS[07:04] Heading: 322°
FS[07:04] Pitch: 7°
FS[07:04] Bank: 11°
FS[07:04] Aircraft Weight: 3513.30 lbs
FS[07:04] Nearest Airport: PAFM
FS[07:04] Distance: 0.23 miles
FS[07:04] Runway: ???
FS[07:04] Ground Surface: Forest
FS[07:04] Ground Condition: Normal
FS[07:04] NOTE: Weather Report
FS[07:04] Wind Heading: 341°
FS[07:04] Wind Speed: 0 knots
FS[07:04] OAT: 18° C
FS[07:04] TAT: 18° C
FS[07:04] Precipitation: None
FS[07:04] Dew Point: 11° C
FS[07:04] Visibility: 62 miles
FS[07:04] METAR: PAFM 161356Z AUTO 03008KT 10SM CLR 12/04 A2991 RMK AO2 SLP142 T01170039
FS[07:04] NOTE: Climb started
FS[07:04] View Mode: Virtual Cockpit
FS[07:05] Autopilot: Engaged
FS[07:05] AGL: 289 ft
FS[07:05] AMSL: 544 ft
FS[07:05] NAV1: 113.70
FS[07:54] Autopilot: Disengaged
FS[07:54] AGL: 1959 ft
FS[07:54] AMSL: 1978 ft
FS[07:57] NOTE: ----- LANDED -----
FS[07:57] Landing Rate: -39.99 fpm
FS[07:57] GS: 0 knots
FS[07:57] TAS: 0 knots
FS[07:57] IAS: 0 knots
FS[07:57] VS: -39 fpm
FS[07:57] FOB: 557 lbs
FS[07:57] Heading: 242°
FS[07:57] Pitch: 0°
FS[07:57] Bank: 0°
FS[07:57] Aircraft Weight: 3395.35 lbs
FS[07:57] Nearest Airport: PAIK
FS[07:57] Distance: 0.05 miles
FS[07:57] Runway: 24 - PAIK
FS[07:57] Ground Surface: Gravel
FS[07:57] Ground Condition: Normal
FS[07:57] NOTE: Weather Report
FS[07:57] Wind Heading: 342°
FS[07:57] Wind Speed: 0 knots
FS[07:57] OAT: 18° C
FS[07:57] TAT: 18° C
FS[07:57] Precipitation: None
FS[07:57] Dew Point: 11° C
FS[07:57] Visibility: 62 miles
FS[07:57] METAR: PAOT 161353Z AUTO 05004KT 10SM CLR 16/07 A2989 RMK AO2 SLP121 T01560072 TSNO
FS[07:57] View Mode: Virtual Cockpit
FS[07:57] NOTE: Taxi started
FS[08:08] Autopilot: Engaged
FS[08:08] AGL: 72 ft
FS[08:08] AMSL: 236 ft
FS[08:09] View Mode: Virtual Cockpit
FS[08:20] Autopilot: Disengaged
FS[08:20] AGL: 502 ft
FS[08:20] AMSL: 554 ft
FS[08:21] NOTE: ----- LANDED -----
FS[08:21] Landing Rate: -13.84 fpm
FS[08:21] GS: 0 knots
FS[08:21] TAS: 0 knots
FS[08:21] IAS: 0 knots
FS[08:21] VS: -13 fpm
FS[08:21] FOB: 503 lbs
FS[08:21] Heading: 238°
FS[08:21] Pitch: 3°
FS[08:21] Bank: 0°
FS[08:21] Aircraft Weight: 3341.65 lbs
FS[08:21] Nearest Airport: D76
FS[08:21] Distance: 0.05 miles
FS[08:21] Runway: 24 - D76
FS[08:21] Ground Surface: Gravel
FS[08:21] Ground Condition: Normal
FS[08:21] NOTE: Weather Report
FS[08:21] Wind Heading: 342°
FS[08:21] Wind Speed: 0 knots
FS[08:21] OAT: 18° C
FS[08:21] TAT: 18° C
FS[08:21] Precipitation: None
FS[08:21] Dew Point: 11° C
FS[08:21] Visibility: 62 miles
FS[08:21] METAR: PAOT 161353Z AUTO 05004KT 10SM CLR 16/07 A2989 RMK AO2 SLP121 T01560072 TSNO
FS[08:21] View Mode: Virtual Cockpit
FS[08:22] Autopilot: Engaged
FS[08:22] AGL: 59 ft
FS[08:22] AMSL: 114 ft
FS[08:22] View Mode: Virtual Cockpit
FS[08:59] Autopilot: Disengaged
FS[08:59] AGL: 731 ft
FS[08:59] AMSL: 731 ft
FS[09:01] NOTE: ----- LANDED -----
FS[09:01] Landing Rate: -46.14 fpm
FS[09:01] GS: 1 knots
FS[09:01] TAS: 3 knots
FS[09:01] IAS: 3 knots
FS[09:01] VS: -46 fpm
FS[09:01] FOB: 413 lbs
FS[09:01] Heading: 91°
FS[09:01] Pitch: 2°
FS[09:01] Bank: 0°
FS[09:01] Aircraft Weight: 3251.48 lbs
FS[09:01] Nearest Airport: PAOT
FS[09:01] Distance: 0.25 miles
FS[09:01] Runway: 8 - PAOT
FS[09:01] Ground Surface: Asphalt
FS[09:01] Ground Condition: Normal
FS[09:01] NOTE: Weather Report
FS[09:01] Wind Heading: 343°
FS[09:01] Wind Speed: 0 knots
FS[09:01] OAT: 18° C
FS[09:01] TAT: 18° C
FS[09:01] Precipitation: None
FS[09:01] Dew Point: 11° C
FS[09:01] Visibility: 62 miles
FS[09:01] METAR: PAOT 161353Z AUTO 05004KT 10SM CLR 16/07 A2989 RMK AO2 SLP121 T01560072 TSNO
FS[09:01] View Mode: Virtual Cockpit
FS[09:01] Gate: n/a
FS[09:01] NOTE: Flight Completed
FS[09:01] FS Aircraft: Bell 407 N020MM
FS[09:01] FS Model: B407
FS[09:01] FS Type: Bell
FS[09:01] FOB: 412 lbs
FS[09:01] Fuel Used: 291 lbs
FS[09:01] Flight Time: 02:09:40
FS[09:01] Flight Time (Dawn): 00:00:00
FS[09:01] Flight Time (Day): 02:09:40
FS[09:01] Flight Time (Dusk): 00:00:00
FS[09:01] Flight Time (Night): 00:00:00
FS[09:01] Total Landings: 3
FS[09:01] MaxSim Rate: 0x
FS[09:01] Cigar Box - 1.1.4.0
FS[09:01] ----- Flight Closed -----

Route Map